Ater, Texas
Current Conditions -  °F | °C
As of 10:35 PM on Friday 21 Nov 2014 (Local Time) from KGOP Reporting Station
Overcast Overcast  
Wind Chill: 66°   Ceiling: 1000
Heat Index: 66°   Visibility: 10mi
Dew Point: 64°   Wind: 10mph
Humidity: 94%   Direction: 170°S
Pressure: 30.08"   Gusts: 16mph
Location:  31.392°N, 97.7452°W
Report Text: KGOP 220435Z AUTO 17009G14KT 10SM BKN010 OVC014 19/18 A3008 RMK AO2 LTG DSNT S AND NW PWINO
Loading
Personal Weather Stations






























Interactive Weather Map New forecast layout! Learn more

10-Day Weather Forecast

Advertisements
Track Severe Weather on mobile